createdAt,value
2017-11-12T00:00:20.671Z,20.50
2017-11-12T00:02:48.800Z,21.13
2017-11-12T00:05:17.719Z,16.13
2017-11-12T00:07:45.866Z,17.07
2017-11-12T00:10:14.797Z,16.63
2017-11-12T00:12:42.918Z,19.73
2017-11-12T00:15:11.819Z,27.03
2017-11-12T00:17:40.735Z,19.10
2017-11-12T00:20:08.887Z,17.60
2017-11-12T00:22:37.831Z,20.80
2017-11-12T00:25:05.960Z,19.37
2017-11-12T00:27:34.083Z,20.70
2017-11-12T00:30:02.242Z,17.30
2017-11-12T00:32:30.449Z,19.67
2017-11-12T00:34:58.592Z,18.40
2017-11-12T00:37:26.784Z,19.13
2017-11-12T00:39:54.931Z,18.87
2017-11-12T00:42:23.070Z,21.67
2017-11-12T00:44:51.214Z,21.03
2017-11-12T00:47:20.102Z,17.50
2017-11-12T00:49:49.010Z,27.87
2017-11-12T00:52:17.338Z,19.60
2017-11-12T00:54:45.460Z,22.30
2017-11-12T00:57:13.594Z,19.43
2017-11-12T00:59:41.750Z,20.10
2017-11-12T01:02:09.898Z,19.73
2017-11-12T01:04:38.883Z,18.67
2017-11-12T01:07:07.032Z,21.67
2017-11-12T01:09:35.942Z,17.60
2017-11-12T01:12:04.128Z,16.53
2017-11-12T01:14:32.261Z,17.67
2017-11-12T01:17:00.406Z,16.10
2017-11-12T01:19:30.055Z,17.07
2017-11-12T01:21:58.180Z,19.63
2017-11-12T01:24:26.336Z,19.87
2017-11-12T01:26:54.461Z,19.50
2017-11-12T01:29:22.578Z,18.00
2017-11-12T01:31:50.727Z,22.03
2017-11-12T01:34:18.865Z,21.63
2017-11-12T01:36:48.245Z,25.53
2017-11-12T01:39:16.360Z,17.63
2017-11-12T01:41:44.526Z,20.67
2017-11-12T01:44:13.429Z,22.57
2017-11-12T01:46:41.557Z,23.10
2017-11-12T01:49:09.702Z,24.60
2017-11-12T01:51:37.829Z,23.20
2017-11-12T01:54:05.955Z,19.80
2017-11-12T01:56:34.085Z,18.97
2017-11-12T01:59:02.214Z,21.53
2017-11-12T02:01:30.435Z,18.73
2017-11-12T02:03:59.335Z,19.90
2017-11-12T02:06:27.483Z,22.00
2017-11-12T02:08:56.430Z,24.50
2017-11-12T02:11:24.570Z,22.63
2017-11-12T02:13:52.751Z,19.90
2017-11-12T02:16:20.893Z,21.27
2017-11-12T02:18:49.812Z,25.57
2017-11-12T02:21:17.944Z,25.77
2017-11-12T02:23:46.845Z,23.70
2017-11-12T02:26:15.733Z,20.37
2017-11-12T02:28:44.642Z,24.50
2017-11-12T02:31:12.825Z,23.83
2017-11-12T02:33:40.969Z,22.60
2017-11-12T02:36:09.171Z,24.83
2017-11-12T02:38:37.300Z,24.60
2017-11-12T02:41:06.206Z,21.63
2017-11-12T02:43:35.101Z,21.60
2017-11-12T02:46:03.256Z,22.20
2017-11-12T02:48:32.165Z,22.97
2017-11-12T02:51:00.570Z,22.20
2017-11-12T02:53:28.698Z,17.83
2017-11-12T02:55:57.589Z,16.97
2017-11-12T02:58:26.529Z,21.53
2017-11-12T03:00:54.697Z,23.80
2017-11-12T03:03:22.819Z,26.30
2017-11-12T03:05:51.705Z,24.20
2017-11-12T03:08:19.849Z,20.80
2017-11-12T03:10:47.983Z,23.10
2017-11-12T03:13:16.118Z,23.80
2017-11-12T03:15:44.241Z,25.20
2017-11-12T03:18:12.410Z,27.20
2017-11-12T03:20:41.296Z,21.93
2017-11-12T03:23:09.426Z,21.57
2017-11-12T03:25:38.686Z,23.20
2017-11-12T03:28:06.813Z,23.27
2017-11-12T03:30:35.715Z,22.70
2017-11-12T03:33:03.889Z,23.90
2017-11-12T03:35:32.021Z,23.00
2017-11-12T03:38:01.705Z,22.33
2017-11-12T03:40:29.837Z,17.13
2017-11-12T03:42:57.965Z,21.43
2017-11-12T03:45:26.103Z,21.27
2017-11-12T03:47:54.239Z,26.73
2017-11-12T03:50:22.429Z,28.97
2017-11-12T03:52:50.570Z,23.67
2017-11-12T03:55:18.709Z,24.77
2017-11-12T03:57:46.846Z,26.20
2017-11-12T04:00:14.978Z,22.73
2017-11-12T04:02:43.111Z,22.17
2017-11-12T04:05:11.230Z,23.50
2017-11-12T04:07:39.380Z,20.77
2017-11-12T04:10:07.508Z,19.80
2017-11-12T04:12:35.649Z,17.73
2017-11-12T04:15:04.568Z,17.80
2017-11-12T04:17:32.709Z,18.93
2017-11-12T04:20:02.367Z,23.80
2017-11-12T04:22:30.829Z,18.40
2017-11-12T04:24:58.950Z,17.27
2017-11-12T04:27:27.086Z,18.10
2017-11-12T04:29:55.229Z,20.00
2017-11-12T04:32:24.116Z,17.40
2017-11-12T04:34:53.017Z,14.53
2017-11-12T04:37:21.906Z,17.60
2017-11-12T04:39:50.153Z,17.50
2017-11-12T04:42:18.276Z,17.97
2017-11-12T04:44:46.509Z,13.83
2017-11-12T04:47:15.420Z,15.83
2017-11-12T04:49:43.555Z,15.50
2017-11-12T04:52:11.718Z,14.50
2017-11-12T04:54:39.862Z,15.77
2017-11-12T04:57:07.985Z,17.30
2017-11-12T04:59:36.931Z,16.17
2017-11-12T05:02:05.056Z,15.80
2017-11-12T05:04:33.959Z,16.63
2017-11-12T05:07:02.865Z,12.90
2017-11-12T05:09:30.990Z,12.80
2017-11-12T05:11:59.126Z,14.50
2017-11-12T05:14:27.262Z,16.30
2017-11-12T05:16:56.291Z,12.20
2017-11-12T05:19:24.512Z,13.50
2017-11-12T05:21:52.684Z,12.63
2017-11-12T05:24:20.857Z,12.37
2017-11-12T05:26:49.754Z,16.03
2017-11-12T05:29:18.651Z,11.93
2017-11-12T05:31:47.556Z,13.10
2017-11-12T05:34:15.685Z,10.73
2017-11-12T05:36:43.813Z,19.20
2017-11-12T05:39:11.944Z,16.03
2017-11-12T05:41:40.825Z,12.37
2017-11-12T05:44:09.066Z,16.50
2017-11-12T05:46:37.212Z,12.80
2017-11-12T05:49:05.443Z,16.80
2017-11-12T05:51:33.586Z,13.03
2017-11-12T05:54:01.718Z,11.83
2017-11-12T05:56:29.856Z,10.63
2017-11-12T05:58:58.004Z,18.63
2017-11-12T06:01:26.114Z,12.07
2017-11-12T06:03:54.249Z,11.80
2017-11-12T06:06:22.395Z,13.50
2017-11-12T06:08:50.511Z,14.23
2017-11-12T06:11:18.644Z,13.43
2017-11-12T06:13:46.796Z,13.13
2017-11-12T06:16:15.705Z,15.43
2017-11-12T06:18:45.090Z,13.60
2017-11-12T06:21:13.233Z,17.37
2017-11-12T06:23:41.350Z,11.77
2017-11-12T06:26:09.494Z,11.80
2017-11-12T06:28:38.378Z,15.00
2017-11-12T06:31:07.307Z,14.47
2017-11-12T06:33:35.457Z,16.40
2017-11-12T06:36:03.581Z,10.80
2017-11-12T06:38:31.726Z,12.93
2017-11-12T06:40:59.852Z,12.97
2017-11-12T06:43:28.012Z,15.27
2017-11-12T06:45:56.124Z,16.20
2017-11-12T06:48:24.290Z,12.73
2017-11-12T06:50:53.242Z,15.83
2017-11-12T06:53:21.374Z,16.87
2017-11-12T06:55:49.543Z,15.70
2017-11-12T06:58:17.697Z,19.07
2017-11-12T07:00:45.856Z,14.13
2017-11-12T07:03:14.764Z,15.10
2017-11-12T07:05:43.677Z,16.80
2017-11-12T07:08:11.797Z,15.67
2017-11-12T07:10:39.949Z,16.20
2017-11-12T07:13:08.073Z,13.97
2017-11-12T07:15:36.229Z,12.87
2017-11-12T07:18:04.366Z,18.50
2017-11-12T07:20:32.495Z,11.80
2017-11-12T07:23:00.641Z,13.10
2017-11-12T07:25:30.313Z,19.17
2017-11-12T07:27:58.439Z,16.90
2017-11-12T07:30:26.561Z,18.77
2017-11-12T07:32:54.705Z,13.77
2017-11-12T07:35:22.837Z,17.20
2017-11-12T07:37:51.733Z,16.03
2017-11-12T07:40:20.625Z,14.37
2017-11-12T07:42:49.513Z,16.73
2017-11-12T07:45:18.436Z,16.40
2017-11-12T07:47:46.564Z,12.43
2017-11-12T07:50:15.474Z,16.47
2017-11-12T07:52:44.374Z,21.77
2017-11-12T07:55:13.278Z,18.87
2017-11-12T07:57:41.409Z,17.90
2017-11-12T08:00:10.326Z,19.87
2017-11-12T08:02:38.487Z,16.50
2017-11-12T08:05:07.411Z,17.00
2017-11-12T08:07:35.569Z,18.03
2017-11-12T08:10:03.970Z,21.07
2017-11-12T08:12:32.213Z,15.97
2017-11-12T08:15:01.172Z,17.67
2017-11-12T08:17:30.074Z,15.53
2017-11-12T08:19:59.058Z,12.80
2017-11-12T08:22:27.174Z,13.10
2017-11-12T08:24:55.341Z,17.80
2017-11-12T08:27:24.263Z,16.70
2017-11-12T08:29:52.413Z,12.80
2017-11-12T08:32:20.597Z,15.70
2017-11-12T08:34:48.701Z,12.43
2017-11-12T08:37:17.837Z,11.60
2017-11-12T08:39:45.977Z,14.00
2017-11-12T08:42:14.225Z,20.57
2017-11-12T08:44:42.432Z,21.73
2017-11-12T08:47:11.416Z,15.17
2017-11-12T08:49:39.526Z,11.20
2017-11-12T08:52:07.670Z,11.13
2017-11-12T08:54:35.794Z,14.23
2017-11-12T08:57:03.940Z,17.87
2017-11-12T08:59:32.070Z,20.10
2017-11-12T09:02:00.213Z,16.83
2017-11-12T09:04:28.353Z,11.43
2017-11-12T09:06:56.492Z,11.40
2017-11-12T09:09:25.425Z,8.93
2017-11-12T09:11:53.579Z,10.57
2017-11-12T09:14:21.775Z,15.10
2017-11-12T09:16:49.898Z,12.10
2017-11-12T09:19:18.045Z,11.03
2017-11-12T09:21:46.180Z,12.97
2017-11-12T09:24:14.362Z,11.43
2017-11-12T09:26:42.503Z,13.80
2017-11-12T09:29:11.417Z,8.53
2017-11-12T09:31:40.315Z,11.40
2017-11-12T09:34:08.484Z,13.40
2017-11-12T09:36:37.400Z,11.60
2017-11-12T09:39:05.555Z,10.60
2017-11-12T09:41:33.715Z,10.70
2017-11-12T09:44:01.843Z,12.77
2017-11-12T09:46:30.003Z,12.83
2017-11-12T09:48:58.139Z,16.63
2017-11-12T09:51:26.302Z,15.60
2017-11-12T09:53:54.436Z,13.83
2017-11-12T09:56:22.589Z,16.03
2017-11-12T09:58:50.757Z,12.63
2017-11-12T10:01:18.882Z,10.47
2017-11-12T10:03:47.804Z,10.97
2017-11-12T10:06:16.022Z,11.50
2017-11-12T10:08:44.174Z,14.23
2017-11-12T10:11:12.288Z,12.10
2017-11-12T10:13:41.210Z,12.67
2017-11-12T10:16:09.349Z,11.20
2017-11-12T10:18:38.241Z,9.63
2017-11-12T10:21:07.153Z,10.30
2017-11-12T10:23:35.319Z,10.20
2017-11-12T10:26:04.241Z,13.00
2017-11-12T10:28:32.358Z,12.20
2017-11-12T10:31:01.287Z,12.23
2017-11-12T10:33:29.422Z,12.80
2017-11-12T10:35:58.360Z,12.83
2017-11-12T10:38:26.506Z,12.53
2017-11-12T10:40:54.657Z,12.20
2017-11-12T10:43:23.570Z,13.43
2017-11-12T10:45:51.721Z,16.20
2017-11-12T10:48:19.868Z,13.40
2017-11-12T10:50:48.018Z,16.50
2017-11-12T10:53:16.145Z,19.37
2017-11-12T10:55:45.059Z,17.33
2017-11-12T10:58:13.202Z,19.03
2017-11-12T11:00:42.118Z,18.47
2017-11-12T11:03:10.265Z,16.27
2017-11-12T11:05:38.588Z,17.40
2017-11-12T11:08:06.726Z,14.57
2017-11-12T11:10:34.855Z,11.67
2017-11-12T11:13:03.008Z,11.00
2017-11-12T11:15:31.174Z,16.03
2017-11-12T11:17:59.313Z,13.03
2017-11-12T11:20:28.235Z,9.97
2017-11-12T11:22:56.341Z,13.00
2017-11-12T11:25:24.520Z,16.53
2017-11-12T11:27:54.169Z,15.93
2017-11-12T11:30:23.150Z,11.87
2017-11-12T11:32:52.171Z,11.30
2017-11-12T11:35:20.309Z,11.50
2017-11-12T11:37:49.282Z,8.90
2017-11-12T11:40:17.411Z,8.60
2017-11-12T11:42:45.586Z,4.90
2017-11-12T11:45:13.686Z,5.60
2017-11-12T11:47:41.825Z,6.77
2017-11-12T11:50:09.965Z,10.13
2017-11-12T11:52:38.998Z,5.57
2017-11-12T11:55:07.124Z,7.03
2017-11-12T11:57:36.113Z,6.90
2017-11-12T12:00:05.097Z,13.80
2017-11-12T12:02:34.026Z,9.43
2017-11-12T12:05:02.163Z,8.67
2017-11-12T12:07:31.082Z,8.37
2017-11-12T12:09:59.212Z,6.50
2017-11-12T12:12:28.875Z,6.80
2017-11-12T12:14:57.003Z,7.63
2017-11-12T12:17:25.126Z,8.23
2017-11-12T12:19:53.377Z,11.63
2017-11-12T12:22:21.555Z,6.20
2017-11-12T12:24:49.697Z,5.77
2017-11-12T12:27:17.834Z,6.80
2017-11-12T12:29:45.977Z,6.13
2017-11-12T12:32:14.107Z,5.27
2017-11-12T12:34:43.037Z,29.13
2017-11-12T12:37:11.190Z,4.80
2017-11-12T12:39:40.088Z,6.67
2017-11-12T12:42:09.008Z,8.07
2017-11-12T12:44:37.190Z,7.80
2017-11-12T12:47:05.331Z,6.17
2017-11-12T12:49:33.465Z,5.50
2017-11-12T12:52:01.635Z,12.33
2017-11-12T12:54:29.766Z,4.47
2017-11-12T12:56:58.748Z,5.63
2017-11-12T12:59:26.900Z,5.80
2017-11-12T13:01:55.792Z,5.40
2017-11-12T13:04:24.697Z,6.30
2017-11-12T13:06:52.848Z,5.17
2017-11-12T13:09:21.741Z,5.20
2017-11-12T13:11:50.654Z,5.50
2017-11-12T13:14:18.817Z,7.07
2017-11-12T13:16:46.944Z,4.90
2017-11-12T13:19:15.536Z,3.70
2017-11-12T13:21:43.706Z,5.50
2017-11-12T13:24:13.349Z,4.53
2017-11-12T13:26:41.513Z,3.83
2017-11-12T13:29:10.691Z,5.70
2017-11-12T13:31:39.595Z,5.07
2017-11-12T13:34:08.518Z,3.50
2017-11-12T13:36:36.670Z,3.83
2017-11-12T13:39:04.826Z,4.40
2017-11-12T13:41:33.706Z,4.10
2017-11-12T13:44:01.847Z,6.77
2017-11-12T13:46:30.006Z,3.83
2017-11-12T13:48:58.144Z,11.20
2017-11-12T13:51:26.335Z,7.47
2017-11-12T13:53:54.458Z,7.97
2017-11-12T13:56:22.592Z,9.60
2017-11-12T13:58:50.741Z,8.97
2017-11-12T14:01:18.884Z,7.40
2017-11-12T14:03:47.835Z,8.33
2017-11-12T14:06:16.007Z,7.13
2017-11-12T14:08:44.142Z,5.37
2017-11-12T14:11:13.054Z,7.87
2017-11-12T14:13:41.204Z,6.70
2017-11-12T14:16:10.106Z,6.50
2017-11-12T14:18:38.273Z,4.67
2017-11-12T14:21:06.488Z,6.67
2017-11-12T14:23:34.641Z,6.37
2017-11-12T14:26:02.793Z,5.10
2017-11-12T14:28:30.973Z,5.10
2017-11-12T14:30:59.107Z,7.27
2017-11-12T14:33:27.254Z,4.13
2017-11-12T14:35:55.370Z,5.10
2017-11-12T14:38:24.301Z,4.80
2017-11-12T14:40:52.427Z,6.77
2017-11-12T14:43:21.356Z,6.13
2017-11-12T14:45:49.491Z,5.00
2017-11-12T14:48:18.372Z,6.30
2017-11-12T14:50:47.296Z,5.40
2017-11-12T14:53:15.476Z,5.57
2017-11-12T14:55:43.632Z,6.80
2017-11-12T14:58:11.836Z,7.60
2017-11-12T15:00:39.982Z,4.93
2017-11-12T15:03:08.142Z,4.87
2017-11-12T15:05:37.031Z,5.60
2017-11-12T15:08:05.958Z,4.40
2017-11-12T15:10:34.151Z,6.90
2017-11-12T15:13:03.853Z,5.73
2017-11-12T15:15:32.035Z,6.13
2017-11-12T15:18:00.176Z,4.33
2017-11-12T15:20:28.359Z,4.20
2017-11-12T15:22:56.512Z,7.53
2017-11-12T15:25:24.721Z,5.77
2017-11-12T15:27:53.254Z,4.53
2017-11-12T15:30:21.432Z,4.50
2017-11-12T15:32:50.377Z,4.33
2017-11-12T15:35:18.532Z,3.87
2017-11-12T15:37:46.723Z,3.43
2017-11-12T15:40:14.902Z,2.87
2017-11-12T15:42:43.073Z,2.87
2017-11-12T15:45:11.238Z,2.40
2017-11-12T15:47:39.415Z,2.70
2017-11-12T15:50:07.664Z,3.37
2017-11-12T15:52:36.573Z,3.23
2017-11-12T15:55:04.704Z,10.03
2017-11-12T15:57:32.943Z,12.57
2017-11-12T16:00:01.877Z,10.37
2017-11-12T16:02:30.013Z,6.50
2017-11-12T16:04:58.157Z,5.83
2017-11-12T16:07:26.308Z,4.77
2017-11-12T16:09:54.509Z,3.43
2017-11-12T16:12:22.625Z,3.33
2017-11-12T16:14:51.521Z,2.53
2017-11-12T16:17:19.736Z,3.93
2017-11-12T16:19:47.896Z,2.83
2017-11-12T16:22:16.059Z,3.60
2017-11-12T16:24:44.209Z,2.60
2017-11-12T16:27:12.354Z,4.17
2017-11-12T16:29:40.522Z,2.30
2017-11-12T16:32:08.662Z,2.43
2017-11-12T16:34:36.799Z,2.17
2017-11-12T16:37:04.943Z,3.47
2017-11-12T16:39:33.865Z,2.97
2017-11-12T16:42:02.028Z,2.63
2017-11-12T16:44:30.932Z,2.20
2017-11-12T16:46:59.083Z,3.60
2017-11-12T16:49:27.983Z,2.30
2017-11-12T16:51:56.163Z,2.77
2017-11-12T16:54:24.287Z,3.07
2017-11-12T16:56:52.436Z,2.10
2017-11-12T16:59:20.578Z,2.63
2017-11-12T17:01:48.706Z,3.00
2017-11-12T17:04:16.851Z,3.10
2017-11-12T17:06:44.987Z,2.43
2017-11-12T17:09:13.157Z,2.20
2017-11-12T17:11:42.054Z,2.93
2017-11-12T17:14:11.004Z,2.80
2017-11-12T17:16:39.209Z,3.23
2017-11-12T17:19:08.145Z,3.07
2017-11-12T17:21:36.273Z,4.40
2017-11-12T17:24:05.193Z,4.30
2017-11-12T17:26:34.103Z,3.43
2017-11-12T17:29:02.239Z,4.07
2017-11-12T17:31:30.402Z,3.40
2017-11-12T17:33:59.321Z,3.83
2017-11-12T17:36:28.326Z,3.87
2017-11-12T17:38:56.460Z,4.17
2017-11-12T17:41:24.627Z,5.17
2017-11-12T17:43:53.538Z,3.43
2017-11-12T17:46:21.720Z,3.93
2017-11-12T17:48:49.860Z,4.63
2017-11-12T17:51:19.400Z,4.70
2017-11-12T17:53:47.644Z,5.17
2017-11-12T17:56:19.199Z,13.23
2017-11-12T17:58:48.164Z,4.40
2017-11-12T18:01:16.338Z,3.80
2017-11-12T18:03:44.494Z,4.87
2017-11-12T18:06:12.637Z,3.50
2017-11-12T18:08:40.779Z,4.70
2017-11-12T18:11:08.917Z,4.20
2017-11-12T18:13:37.066Z,4.50
2017-11-12T18:16:05.201Z,5.10
2017-11-12T18:18:33.346Z,8.47
2017-11-12T18:21:01.514Z,4.17
2017-11-12T18:23:29.647Z,6.07
2017-11-12T18:25:57.804Z,15.10
2017-11-12T18:28:25.945Z,14.67
2017-11-12T18:30:54.844Z,8.50
2017-11-12T18:33:23.768Z,7.07
2017-11-12T18:35:51.920Z,6.10
2017-11-12T18:38:20.051Z,4.30
2017-11-12T18:40:49.704Z,3.80
2017-11-12T18:43:17.945Z,7.33
2017-11-12T18:45:46.867Z,7.63
2017-11-12T18:48:15.001Z,17.30
2017-11-12T18:50:57.916Z,8.70
2017-11-12T18:53:26.076Z,4.27
2017-11-12T18:58:57.343Z,3.60
2017-11-12T19:01:31.186Z,5.67
2017-11-12T19:04:05.781Z,5.27
2017-11-12T19:06:35.438Z,3.73
2017-11-12T19:09:03.621Z,5.07
2017-11-12T19:11:31.762Z,5.10
2017-11-12T19:14:00.785Z,4.37
2017-11-12T19:16:29.043Z,4.20
2017-11-12T19:18:57.782Z,5.23
2017-11-12T19:21:31.775Z,6.23
2017-11-12T19:24:03.724Z,6.57
2017-11-12T19:26:31.904Z,4.80
2017-11-12T19:29:00.060Z,5.67
2017-11-12T19:31:28.182Z,6.63
2017-11-12T19:33:57.913Z,5.80
2017-11-12T19:36:26.802Z,6.17
2017-11-12T19:38:55.739Z,5.00
2017-11-12T19:41:24.072Z,5.63
2017-11-12T19:43:53.029Z,6.83
2017-11-12T19:46:21.212Z,5.60
2017-11-12T19:48:50.891Z,4.37
2017-11-12T19:51:19.046Z,6.13
2017-11-12T19:53:47.232Z,6.40
2017-11-12T19:56:15.497Z,6.43
2017-11-12T19:58:43.654Z,7.23
2017-11-12T20:01:11.845Z,5.20
2017-11-12T20:03:40.300Z,4.83
2017-11-12T20:06:09.224Z,4.97
2017-11-12T20:08:37.368Z,5.80
2017-11-12T20:11:05.592Z,5.50
2017-11-12T20:13:35.380Z,6.80
2017-11-12T20:16:03.555Z,8.80
2017-11-12T20:18:31.736Z,7.47
2017-11-12T20:20:59.898Z,9.00
2017-11-12T20:23:28.052Z,5.87
2017-11-12T20:25:56.212Z,6.33
2017-11-12T20:28:24.407Z,8.50
2017-11-12T20:30:52.538Z,7.10
2017-11-12T20:33:20.744Z,12.47
2017-11-12T20:35:49.229Z,11.47
2017-11-12T20:38:17.416Z,5.33
2017-11-12T20:40:45.549Z,6.57
2017-11-12T20:43:14.513Z,18.67
2017-11-12T20:45:42.664Z,13.27
2017-11-12T20:48:10.863Z,22.67
2017-11-12T20:50:39.074Z,18.30
2017-11-12T20:53:07.309Z,38.70
2017-11-12T20:55:36.262Z,29.00
2017-11-12T20:58:04.438Z,24.40
2017-11-12T21:00:38.307Z,18.37
2017-11-12T21:03:06.517Z,10.80
2017-11-12T21:05:35.152Z,8.90
2017-11-12T21:08:03.283Z,11.73
2017-11-12T21:10:31.429Z,10.43
2017-11-12T21:12:59.587Z,9.80
2017-11-12T21:15:27.732Z,11.60
2017-11-12T21:17:56.660Z,10.00
2017-11-12T21:20:40.486Z,7.87
2017-11-12T21:23:09.399Z,8.43
2017-11-12T21:25:37.534Z,16.33
2017-11-12T21:28:22.103Z,17.30
2017-11-12T21:30:51.470Z,14.07
2017-11-12T21:33:25.969Z,13.03
2017-11-12T21:35:54.742Z,11.63
2017-11-12T21:38:22.887Z,9.00
2017-11-12T21:40:52.011Z,14.27
2017-11-12T21:43:20.177Z,10.77
2017-11-12T21:45:48.460Z,10.33
2017-11-12T21:48:16.602Z,11.43
2017-11-12T21:50:44.741Z,7.77
2017-11-12T21:53:13.661Z,14.90
2017-11-12T21:55:42.557Z,10.80
2017-11-12T21:58:10.704Z,10.17
2017-11-12T22:00:39.621Z,9.33
2017-11-12T22:03:07.757Z,8.83
2017-11-12T22:05:35.879Z,9.37
2017-11-12T22:08:04.042Z,10.53
2017-11-12T22:10:32.183Z,8.90
2017-11-12T22:13:00.323Z,10.87
2017-11-12T22:15:28.447Z,7.17
2017-11-12T22:17:56.586Z,7.30
2017-11-12T22:20:24.727Z,10.90
2017-11-12T22:22:52.856Z,8.37
2017-11-12T22:25:21.774Z,9.10
2017-11-12T22:27:49.906Z,8.93
2017-11-12T22:30:19.542Z,6.20
2017-11-12T22:32:48.528Z,9.57
2017-11-12T22:35:16.673Z,7.40
2017-11-12T22:37:45.585Z,9.83
2017-11-12T22:40:14.506Z,7.43
2017-11-12T22:42:42.648Z,10.17
2017-11-12T22:45:11.593Z,9.10
2017-11-12T22:47:39.750Z,10.23
2017-11-12T22:50:07.908Z,7.37
2017-11-12T22:52:36.070Z,7.30
2017-11-12T22:55:04.969Z,12.37
2017-11-12T22:57:33.103Z,7.67
2017-11-12T23:00:01.239Z,5.93
2017-11-12T23:02:29.370Z,5.63
2017-11-12T23:04:57.518Z,7.70
2017-11-12T23:07:26.418Z,13.60
2017-11-12T23:09:54.548Z,8.80
2017-11-12T23:12:22.689Z,10.70
2017-11-12T23:14:50.866Z,8.20
2017-11-12T23:17:19.007Z,6.67
2017-11-12T23:19:47.136Z,6.90
2017-11-12T23:22:15.270Z,10.17
2017-11-12T23:24:43.428Z,8.77
2017-11-12T23:27:12.334Z,7.00
2017-11-12T23:29:40.441Z,5.63
2017-11-12T23:32:08.578Z,14.07
2017-11-12T23:34:36.705Z,5.90
2017-11-12T23:37:05.622Z,6.13
2017-11-12T23:39:34.506Z,14.93
2017-11-12T23:42:03.417Z,7.90
2017-11-12T23:44:31.534Z,8.43
2017-11-12T23:46:59.692Z,5.47
2017-11-12T23:49:27.816Z,7.10
2017-11-12T23:51:56.714Z,6.70
2017-11-12T23:54:25.593Z,10.60
2017-11-12T23:56:54.489Z,5.80
2017-11-12T23:59:23.394Z,5.50
